sensor_id;sensor_type;location;lat;lon;timestamp;P1;durP1;ratioP1;P2;durP2;ratioP2
77148;SDS011;66122;47.130;16.844;2024-03-02T00:00:31;0.50;;;0.40;;
77148;SDS011;66122;47.130;16.844;2024-03-02T00:10:37;0.40;;;0.30;;
77148;SDS011;66122;47.130;16.844;2024-03-02T00:20:43;0.40;;;0.20;;
77148;SDS011;66122;47.130;16.844;2024-03-02T00:30:54;0.40;;;0.20;;
77148;SDS011;66122;47.130;16.844;2024-03-02T00:41:04;0.60;;;0.50;;
77148;SDS011;66122;47.130;16.844;2024-03-02T00:51:11;0.40;;;0.20;;
77148;SDS011;66122;47.130;16.844;2024-03-02T01:01:14;0.55;;;0.40;;
77148;SDS011;66122;47.130;16.844;2024-03-02T01:11:20;0.50;;;0.40;;
77148;SDS011;66122;47.130;16.844;2024-03-02T01:21:25;0.50;;;0.30;;
77148;SDS011;66122;47.130;16.844;2024-03-02T01:31:29;0.50;;;0.30;;
77148;SDS011;66122;47.130;16.844;2024-03-02T01:41:32;0.40;;;0.20;;
77148;SDS011;66122;47.130;16.844;2024-03-02T01:51:36;0.40;;;0.30;;
77148;SDS011;66122;47.130;16.844;2024-03-02T02:01:39;0.40;;;0.20;;
77148;SDS011;66122;47.130;16.844;2024-03-02T02:11:41;0.30;;;0.20;;
77148;SDS011;66122;47.130;16.844;2024-03-02T02:21:49;0.40;;;0.20;;
77148;SDS011;66122;47.130;16.844;2024-03-02T02:31:54;0.40;;;0.20;;
77148;SDS011;66122;47.130;16.844;2024-03-02T02:42:02;0.40;;;0.20;;
77148;SDS011;66122;47.130;16.844;2024-03-02T02:52:12;0.40;;;0.20;;
77148;SDS011;66122;47.130;16.844;2024-03-02T03:02:18;0.50;;;0.43;;
77148;SDS011;66122;47.130;16.844;2024-03-02T03:12:21;0.43;;;0.30;;
77148;SDS011;66122;47.130;16.844;2024-03-02T03:22:25;0.50;;;0.40;;
77148;SDS011;66122;47.130;16.844;2024-03-02T03:32:28;0.50;;;0.40;;
77148;SDS011;66122;47.130;16.844;2024-03-02T03:42:30;0.50;;;0.40;;
77148;SDS011;66122;47.130;16.844;2024-03-02T03:52:36;0.40;;;0.30;;
77148;SDS011;66122;47.130;16.844;2024-03-02T04:02:39;0.30;;;0.20;;
77148;SDS011;66122;47.130;16.844;2024-03-02T04:12:45;0.40;;;0.20;;
77148;SDS011;66122;47.130;16.844;2024-03-02T04:22:48;0.55;;;0.45;;
77148;SDS011;66122;47.130;16.844;2024-03-02T04:32:51;0.40;;;0.20;;
77148;SDS011;66122;47.130;16.844;2024-03-02T04:42:57;0.40;;;0.30;;
77148;SDS011;66122;47.130;16.844;2024-03-02T04:53:03;0.50;;;0.30;;
77148;SDS011;66122;47.130;16.844;2024-03-02T05:03:07;0.40;;;0.20;;
77148;SDS011;66122;47.130;16.844;2024-03-02T05:13:12;0.50;;;0.30;;
77148;SDS011;66122;47.130;16.844;2024-03-02T05:23:15;0.40;;;0.20;;
77148;SDS011;66122;47.130;16.844;2024-03-02T05:33:17;0.40;;;0.20;;
77148;SDS011;66122;47.130;16.844;2024-03-02T05:43:20;0.40;;;0.20;;
77148;SDS011;66122;47.130;16.844;2024-03-02T05:53:24;0.40;;;0.20;;
77148;SDS011;66122;47.130;16.844;2024-03-02T06:03:26;0.40;;;0.20;;
77148;SDS011;66122;47.130;16.844;2024-03-02T06:13:31;0.50;;;0.40;;
77148;SDS011;66122;47.130;16.844;2024-03-02T06:23:35;0.50;;;0.40;;
77148;SDS011;66122;47.130;16.844;2024-03-02T06:33:43;0.50;;;0.38;;
77148;SDS011;66122;47.130;16.844;2024-03-02T06:43:46;0.40;;;0.30;;
77148;SDS011;66122;47.130;16.844;2024-03-02T06:53:49;0.40;;;0.20;;
77148;SDS011;66122;47.130;16.844;2024-03-02T07:03:53;0.50;;;0.30;;
77148;SDS011;66122;47.130;16.844;2024-03-02T07:13:56;0.40;;;0.20;;
77148;SDS011;66122;47.130;16.844;2024-03-02T07:23:58;0.60;;;0.40;;
77148;SDS011;66122;47.130;16.844;2024-03-02T07:34:06;0.47;;;0.27;;
77148;SDS011;66122;47.130;16.844;2024-03-02T07:44:10;0.40;;;0.20;;
77148;SDS011;66122;47.130;16.844;2024-03-02T07:54:16;0.43;;;0.30;;
77148;SDS011;66122;47.130;16.844;2024-03-02T08:04:19;0.60;;;0.40;;
77148;SDS011;66122;47.130;16.844;2024-03-02T08:14:23;0.50;;;0.32;;
77148;SDS011;66122;47.130;16.844;2024-03-02T08:24:26;0.70;;;0.60;;
77148;SDS011;66122;47.130;16.844;2024-03-02T08:34:35;0.43;;;0.30;;
77148;SDS011;66122;47.130;16.844;2024-03-02T08:44:46;0.60;;;0.47;;
77148;SDS011;66122;47.130;16.844;2024-03-02T08:54:51;0.50;;;0.30;;
77148;SDS011;66122;47.130;16.844;2024-03-02T09:04:53;1.00;;;0.90;;
77148;SDS011;66122;47.130;16.844;2024-03-02T09:15:03;0.60;;;0.40;;
77148;SDS011;66122;47.130;16.844;2024-03-02T09:25:14;0.60;;;0.40;;
77148;SDS011;66122;47.130;16.844;2024-03-02T09:35:27;0.87;;;0.80;;
77148;SDS011;66122;47.130;16.844;2024-03-02T09:45:32;1.13;;;1.03;;
77148;SDS011;66122;47.130;16.844;2024-03-02T09:55:39;0.70;;;0.55;;
77148;SDS011;66122;47.130;16.844;2024-03-02T10:05:46;0.70;;;0.60;;
77148;SDS011;66122;47.130;16.844;2024-03-02T10:15:51;0.70;;;0.60;;
77148;SDS011;66122;47.130;16.844;2024-03-02T10:26:00;0.60;;;0.30;;
77148;SDS011;66122;47.130;16.844;2024-03-02T10:36:07;0.70;;;0.57;;
77148;SDS011;66122;47.130;16.844;2024-03-02T10:46:11;0.70;;;0.60;;
77148;SDS011;66122;47.130;16.844;2024-03-02T10:56:22;0.50;;;0.30;;
77148;SDS011;66122;47.130;16.844;2024-03-02T11:06:47;0.80;;;0.75;;
77148;SDS011;66122;47.130;16.844;2024-03-02T11:16:52;0.80;;;0.67;;
77148;SDS011;66122;47.130;16.844;2024-03-02T11:26:57;0.77;;;0.70;;
77148;SDS011;66122;47.130;16.844;2024-03-02T11:37:03;1.02;;;0.93;;
77148;SDS011;66122;47.130;16.844;2024-03-02T11:47:07;1.17;;;1.07;;
77148;SDS011;66122;47.130;16.844;2024-03-02T11:57:10;0.80;;;0.70;;
77148;SDS011;66122;47.130;16.844;2024-03-02T12:07:20;1.27;;;1.17;;
77148;SDS011;66122;47.130;16.844;2024-03-02T12:17:24;0.70;;;0.50;;
77148;SDS011;66122;47.130;16.844;2024-03-02T12:27:29;0.77;;;0.67;;
77148;SDS011;66122;47.130;16.844;2024-03-02T12:37:32;0.70;;;0.50;;
77148;SDS011;66122;47.130;16.844;2024-03-02T12:47:36;0.95;;;0.88;;
77148;SDS011;66122;47.130;16.844;2024-03-02T12:57:40;0.80;;;0.70;;
77148;SDS011;66122;47.130;16.844;2024-03-02T13:07:47;1.13;;;1.03;;
77148;SDS011;66122;47.130;16.844;2024-03-02T13:17:51;1.10;;;1.00;;
77148;SDS011;66122;47.130;16.844;2024-03-02T13:27:54;0.70;;;0.50;;
77148;SDS011;66122;47.130;16.844;2024-03-02T13:38:03;0.80;;;0.73;;
77148;SDS011;66122;47.130;16.844;2024-03-02T13:48:06;0.80;;;0.80;;
77148;SDS011;66122;47.130;16.844;2024-03-02T13:58:16;0.80;;;0.70;;
77148;SDS011;66122;47.130;16.844;2024-03-02T14:08:25;1.20;;;1.10;;
77148;SDS011;66122;47.130;16.844;2024-03-02T14:18:29;0.80;;;0.60;;
77148;SDS011;66122;47.130;16.844;2024-03-02T14:28:31;1.08;;;0.98;;
77148;SDS011;66122;47.130;16.844;2024-03-02T14:38:57;0.80;;;0.70;;
77148;SDS011;66122;47.130;16.844;2024-03-02T14:49:12;1.33;;;1.23;;
77148;SDS011;66122;47.130;16.844;2024-03-02T14:59:22;0.80;;;0.70;;
77148;SDS011;66122;47.130;16.844;2024-03-02T15:09:32;1.00;;;0.90;;
77148;SDS011;66122;47.130;16.844;2024-03-02T15:19:39;1.30;;;1.20;;
77148;SDS011;66122;47.130;16.844;2024-03-02T15:29:41;0.70;;;0.60;;
77148;SDS011;66122;47.130;16.844;2024-03-02T15:39:50;0.60;;;0.40;;
77148;SDS011;66122;47.130;16.844;2024-03-02T15:50:14;0.67;;;0.50;;
77148;SDS011;66122;47.130;16.844;2024-03-02T16:00:21;0.50;;;0.30;;
77148;SDS011;66122;47.130;16.844;2024-03-02T16:10:25;0.60;;;0.50;;
77148;SDS011;66122;47.130;16.844;2024-03-02T16:20:32;0.57;;;0.37;;
77148;SDS011;66122;47.130;16.844;2024-03-02T16:30:42;0.63;;;0.53;;
77148;SDS011;66122;47.130;16.844;2024-03-02T16:40:51;0.50;;;0.35;;
77148;SDS011;66122;47.130;16.844;2024-03-02T16:50:57;0.70;;;0.60;;
77148;SDS011;66122;47.130;16.844;2024-03-02T17:01:04;0.70;;;0.63;;
77148;SDS011;66122;47.130;16.844;2024-03-02T17:11:09;0.50;;;0.37;;
77148;SDS011;66122;47.130;16.844;2024-03-02T17:21:11;0.70;;;0.68;;
77148;SDS011;66122;47.130;16.844;2024-03-02T17:31:16;0.60;;;0.40;;
77148;SDS011;66122;47.130;16.844;2024-03-02T17:41:26;0.60;;;0.40;;
77148;SDS011;66122;47.130;16.844;2024-03-02T17:51:39;0.50;;;0.30;;
77148;SDS011;66122;47.130;16.844;2024-03-02T18:01:43;0.53;;;0.40;;
77148;SDS011;66122;47.130;16.844;2024-03-02T18:11:46;0.70;;;0.60;;
77148;SDS011;66122;47.130;16.844;2024-03-02T18:21:51;0.60;;;0.50;;
77148;SDS011;66122;47.130;16.844;2024-03-02T18:31:54;0.70;;;0.60;;
77148;SDS011;66122;47.130;16.844;2024-03-02T18:41:58;0.40;;;0.30;;
77148;SDS011;66122;47.130;16.844;2024-03-02T18:52:03;0.50;;;0.40;;
77148;SDS011;66122;47.130;16.844;2024-03-02T19:02:06;0.40;;;0.20;;
77148;SDS011;66122;47.130;16.844;2024-03-02T19:12:10;0.40;;;0.30;;
77148;SDS011;66122;47.130;16.844;2024-03-02T19:22:13;0.40;;;0.20;;
77148;SDS011;66122;47.130;16.844;2024-03-02T19:32:15;0.60;;;0.50;;
77148;SDS011;66122;47.130;16.844;2024-03-02T19:42:24;0.40;;;0.27;;
77148;SDS011;66122;47.130;16.844;2024-03-02T19:52:27;0.50;;;0.40;;
77148;SDS011;66122;47.130;16.844;2024-03-02T20:02:37;0.40;;;0.30;;
77148;SDS011;66122;47.130;16.844;2024-03-02T20:12:50;0.50;;;0.32;;
77148;SDS011;66122;47.130;16.844;2024-03-02T20:22:58;0.40;;;0.20;;
77148;SDS011;66122;47.130;16.844;2024-03-02T20:33:01;0.50;;;0.30;;
77148;SDS011;66122;47.130;16.844;2024-03-02T20:43:04;0.40;;;0.20;;
77148;SDS011;66122;47.130;16.844;2024-03-02T20:53:15;0.40;;;0.20;;
77148;SDS011;66122;47.130;16.844;2024-03-02T21:03:40;0.40;;;0.23;;
77148;SDS011;66122;47.130;16.844;2024-03-02T21:13:52;0.50;;;0.40;;
77148;SDS011;66122;47.130;16.844;2024-03-02T21:24:06;0.50;;;0.33;;
77148;SDS011;66122;47.130;16.844;2024-03-02T21:34:12;0.60;;;0.47;;
77148;SDS011;66122;47.130;16.844;2024-03-02T21:44:19;0.40;;;0.28;;
77148;SDS011;66122;47.130;16.844;2024-03-02T21:54:27;0.50;;;0.30;;
77148;SDS011;66122;47.130;16.844;2024-03-02T22:04:30;0.47;;;0.30;;
77148;SDS011;66122;47.130;16.844;2024-03-02T22:14:33;0.43;;;0.30;;
77148;SDS011;66122;47.130;16.844;2024-03-02T22:24:42;0.40;;;0.20;;
77148;SDS011;66122;47.130;16.844;2024-03-02T22:34:47;0.40;;;0.30;;
77148;SDS011;66122;47.130;16.844;2024-03-02T22:44:57;0.40;;;0.30;;
77148;SDS011;66122;47.130;16.844;2024-03-02T22:55:01;0.40;;;0.20;;
77148;SDS011;66122;47.130;16.844;2024-03-02T23:05:04;0.40;;;0.30;;
77148;SDS011;66122;47.130;16.844;2024-03-02T23:15:14;0.50;;;0.40;;
77148;SDS011;66122;47.130;16.844;2024-03-02T23:25:21;0.50;;;0.38;;
77148;SDS011;66122;47.130;16.844;2024-03-02T23:35:29;0.50;;;0.30;;
77148;SDS011;66122;47.130;16.844;2024-03-02T23:45:41;0.50;;;0.40;;
77148;SDS011;66122;47.130;16.844;2024-03-02T23:55:55;0.40;;;0.30;;
